Time;durP1;ratioP1;P1;durP2;ratioP2;P2;SDS_P1;SDS_P2;PMS_P1;PMS_P2;Temp;Humidity;BMP_temperature;BMP_pressure;BME280_temperature;BME280_humidity;BME280_pressure;Samples;Min_cycle;Max_cycle;Signal;HPM_P1;HPM_P2
2022/08/08 00:00:38;;;;;;;4.10;3.70;;;;;19.40;97166.00;;;;5091938;28;20198;-69
2022/08/08 00:03:38;;;;;;;4.30;4.00;;;;;19.50;97171.00;;;;5090604;28;20195;-69
2022/08/08 00:06:36;;;;;;;4.00;3.70;;;;;19.50;97170.00;;;;5091212;28;20222;-69
2022/08/08 00:09:28;;;;;;;4.53;4.13;;;;;19.60;97173.00;;;;5089429;28;20199;-69
2022/08/08 00:12:21;;;;;;;5.00;3.43;;;;;19.80;97171.00;;;;5087165;28;20207;-69
2022/08/08 00:15:13;;;;;;;4.50;4.07;;;;;19.70;97174.00;;;;5082811;28;20215;-69
2022/08/08 00:18:05;;;;;;;4.23;3.83;;;;;19.80;97174.00;;;;5081945;28;20226;-69
2022/08/08 00:20:57;;;;;;;3.50;3.30;;;;;19.90;97166.00;;;;5088214;28;20191;-69
2022/08/08 00:23:48;;;;;;;3.87;3.57;;;;;20.00;97164.00;;;;5089515;28;20206;-69
2022/08/08 00:26:41;;;;;;;4.33;3.47;;;;;19.70;97164.00;;;;5091202;28;20282;-69
2022/08/08 00:29:33;;;;;;;3.70;3.40;;;;;19.80;97155.00;;;;5089118;28;20681;-69
2022/08/08 00:32:25;;;;;;;6.77;3.97;;;;;19.50;97165.00;;;;5089895;28;20608;-69
2022/08/08 00:35:34;;;;;;;3.70;3.30;;;;;19.60;97169.00;;;;5090177;28;20581;-69
2022/08/08 00:38:41;;;;;;;4.73;4.17;;;;;19.30;97173.00;;;;5089898;28;20211;-69
2022/08/08 00:42:09;;;;;;;5.30;3.87;;;;;19.00;97188.00;;;;5091159;28;20199;-69
2022/08/08 00:45:31;;;;;;;5.93;3.47;;;;;19.10;97180.00;;;;5090017;28;20187;-69
2022/08/08 00:48:55;;;;;;;4.77;4.37;;;;;18.80;97182.00;;;;5083042;28;20228;-69
2022/08/08 00:52:04;;;;;;;3.97;3.57;;;;;19.10;97183.00;;;;5086543;28;20196;-69
2022/08/08 00:55:13;;;;;;;6.97;4.13;;;;;19.30;97173.00;;;;5088740;28;20211;-70
2022/08/08 00:58:49;;;;;;;3.87;3.57;;;;;19.30;97166.00;;;;5089654;28;20706;-70
2022/08/08 01:01:44;;;;;;;4.00;3.70;;;;;19.20;97168.00;;;;5082107;28;20199;-69
2022/08/08 01:05:03;;;;;;;5.30;4.13;;;;;19.00;97181.00;;;;5078898;28;20207;-70
2022/08/08 01:08:22;;;;;;;4.57;3.77;;;;;19.10;97177.00;;;;5089751;28;20231;-69
2022/08/08 01:11:43;;;;;;;4.00;3.57;;;;;19.20;97173.00;;;;5084600;28;20207;-69
2022/08/08 01:15:26;;;;;;;4.60;4.03;;;;;19.20;97178.00;;;;5083069;28;20200;-69
2022/08/08 01:18:46;;;;;;;4.63;3.53;;;;;19.30;97176.00;;;;5081399;28;20215;-69
2022/08/08 01:22:13;;;;;;;4.13;3.80;;;;;19.40;97175.00;;;;5085076;28;20199;-69
2022/08/08 01:25:26;;;;;;;4.57;3.80;;;;;19.30;97168.00;;;;5089086;28;20600;-69
2022/08/08 01:28:35;;;;;;;4.00;3.60;;;;;19.10;97167.00;;;;5083377;28;20215;-69
2022/08/08 01:32:07;;;;;;;4.53;3.67;;;;;19.10;97159.00;;;;5088001;28;20197;-69
2022/08/08 01:35:29;;;;;;;5.73;4.87;;;;;19.00;97158.00;;;;5088355;28;20728;-69
2022/08/08 01:39:02;;;;;;;3.97;3.63;;;;;19.30;97156.00;;;;5082836;28;20216;-69
2022/08/08 01:41:58;;;;;;;3.67;3.37;;;;;18.80;97158.00;;;;5088942;28;20199;-69
2022/08/08 01:45:01;;;;;;;4.33;3.97;;;;;18.90;97167.00;;;;5083620;28;20219;-70
2022/08/08 01:47:59;;;;;;;4.63;3.93;;;;;18.70;97157.00;;;;5083535;28;20218;-69
2022/08/08 01:51:03;;;;;;;4.43;3.80;;;;;18.80;97155.00;;;;5089215;28;20221;-69
2022/08/08 01:53:57;;;;;;;5.27;4.23;;;;;18.70;97158.00;;;;5087914;28;20206;-69
2022/08/08 01:57:04;;;;;;;4.17;3.87;;;;;18.70;97163.00;;;;5088395;28;20219;-69
2022/08/08 02:00:09;;;;;;;4.70;4.27;;;;;18.70;97158.00;;;;5088564;28;20210;-69
2022/08/08 02:03:23;;;;;;;6.07;3.80;;;;;19.10;97150.00;;;;5077154;28;20203;-69
2022/08/08 02:06:20;;;;;;;5.53;3.63;;;;;19.10;97152.00;;;;5080229;28;20202;-69
2022/08/08 02:09:15;;;;;;;5.30;3.13;;;;;18.80;97155.00;;;;5087533;28;20226;-69
2022/08/08 02:12:09;;;;;;;4.90;4.47;;;;;18.50;97161.00;;;;5087275;28;20204;-69
2022/08/08 02:15:03;;;;;;;6.77;3.60;;;;;18.50;97166.00;;;;5087075;28;20199;-70
2022/08/08 02:17:56;;;;;;;5.47;4.93;;;;;18.80;97165.00;;;;5087131;28;20223;-69
2022/08/08 02:24:00;;;;;;;3.60;3.30;;;;;19.20;97161.00;;;;5087655;28;20211;-69
2022/08/08 02:26:53;;;;;;;3.60;3.30;;;;;19.30;97160.00;;;;5088030;28;20705;-69
2022/08/08 02:29:57;;;;;;;3.87;3.57;;;;;19.10;97149.00;;;;5084958;28;20207;-69
2022/08/08 02:33:08;;;;;;;5.00;3.77;;;;;19.10;97152.00;;;;5087379;28;20218;-70
2022/08/08 02:36:08;;;;;;;4.03;3.73;;;;;19.20;97161.00;;;;5087358;28;20226;-69
2022/08/08 02:39:31;;;;;;;3.97;3.57;;;;;19.30;97158.00;;;;5088036;28;20223;-69
2022/08/08 02:43:05;;;;;;;5.07;4.03;;;;;19.20;97163.00;;;;5070480;28;20214;-70
2022/08/08 02:46:26;;;;;;;4.27;3.63;;;;;19.20;97155.00;;;;4970743;28;20213;-69
2022/08/08 02:49:32;;;;;;;4.23;3.83;;;;;19.20;97160.00;;;;5087269;28;20215;-69
2022/08/08 02:52:42;;;;;;;5.43;4.27;;;;;19.00;97162.00;;;;5087031;28;20191;-69
2022/08/08 02:56:08;;;;;;;7.10;3.73;;;;;19.00;97159.00;;;;5087523;28;20218;-68
2022/08/08 02:59:39;;;;;;;4.37;3.93;;;;;19.10;97153.00;;;;5076747;28;20227;-69
2022/08/08 03:03:01;;;;;;;4.63;4.13;;;;;19.30;97160.00;;;;5082127;28;20211;-69
2022/08/08 03:06:24;;;;;;;4.63;3.33;;;;;19.30;97154.00;;;;5086541;28;20203;-69
2022/08/08 03:10:03;;;;;;;4.13;3.73;;;;;19.00;97164.00;;;;5087273;28;20227;-69
2022/08/08 03:13:23;;;;;;;3.90;3.47;;;;;19.10;97166.00;;;;5075741;28;20206;-69
2022/08/08 03:16:38;;;;;;;7.60;3.93;;;;;18.90;97189.00;;;;5088284;28;20694;-68
2022/08/08 03:20:05;;;;;;;3.87;3.37;;;;;18.50;97179.00;;;;5084029;28;20199;-69
2022/08/08 03:22:55;;;;;;;5.23;3.73;;;;;18.70;97186.00;;;;5055776;28;20214;-69
2022/08/08 03:25:46;;;;;;;4.93;4.47;;;;;18.70;97185.00;;;;5087419;28;20195;-69
2022/08/08 03:28:41;;;;;;;4.80;3.63;;;;;18.70;97193.00;;;;5086698;28;20237;-68
2022/08/08 03:34:36;;;;;;;12.17;4.93;;;;;19.10;97193.00;;;;5085790;28;20194;-68
2022/08/08 03:37:25;;;;;;;4.17;3.80;;;;;19.20;97185.00;;;;5087929;28;20242;-69
2022/08/08 03:40:17;;;;;;;4.17;3.83;;;;;19.20;97182.00;;;;5087218;28;20278;-69
2022/08/08 03:43:09;;;;;;;4.50;4.10;;;;;19.20;97181.00;;;;5086185;28;20263;-69
2022/08/08 03:46:04;;;;;;;4.90;3.70;;;;;19.20;97174.00;;;;5085900;28;20207;-68
2022/08/08 03:48:56;;;;;;;4.83;3.57;;;;;19.20;97181.00;;;;5070566;28;20224;-68
2022/08/08 03:51:45;;;;;;;4.90;4.07;;;;;19.30;97171.00;;;;5080417;28;20594;-68
2022/08/08 03:54:34;;;;;;;4.37;3.37;;;;;19.40;97171.00;;;;5076657;28;20831;-68
2022/08/08 03:57:25;;;;;;;4.10;3.70;;;;;19.30;97163.00;;;;5086561;28;20736;-68
2022/08/08 04:00:16;;;;;;;14.07;4.20;;;;;19.10;97183.00;;;;5087531;28;20191;-68
2022/08/08 04:03:07;;;;;;;5.93;4.57;;;;;18.90;97178.00;;;;5084140;28;20207;-69
2022/08/08 04:05:56;;;;;;;4.40;4.10;;;;;18.60;97186.00;;;;5070105;28;20672;-68
2022/08/08 04:08:45;;;;;;;4.70;4.30;;;;;18.50;97190.00;;;;5088276;28;20227;-68
2022/08/08 04:11:34;;;;;;;5.70;3.53;;;;;18.80;97193.00;;;;5091646;28;20195;-68
2022/08/08 04:14:25;;;;;;;4.20;3.90;;;;;19.10;97188.00;;;;5090286;28;20199;-68
2022/08/08 04:17:14;;;;;;;4.40;4.00;;;;;19.00;97187.00;;;;5091094;28;20223;-68
2022/08/08 04:20:03;;;;;;;3.93;3.63;;;;;18.90;97187.00;;;;5088203;28;20213;-68
2022/08/08 04:22:52;;;;;;;5.10;3.97;;;;;18.90;97186.00;;;;5090944;28;20204;-69
2022/08/08 04:25:41;;;;;;;7.77;4.10;;;;;18.50;97194.00;;;;5089614;28;20199;-69
2022/08/08 04:28:30;;;;;;;3.93;3.60;;;;;18.80;97187.00;;;;5083079;28;20223;-69
2022/08/08 04:31:20;;;;;;;4.73;4.33;;;;;19.10;97193.00;;;;5069461;28;20204;-69
2022/08/08 04:34:09;;;;;;;4.00;3.60;;;;;19.30;97192.00;;;;5070369;28;20200;-69
2022/08/08 04:36:58;;;;;;;3.77;3.47;;;;;19.30;97196.00;;;;5070603;28;20216;-69
2022/08/08 04:39:47;;;;;;;4.23;3.83;;;;;19.30;97199.00;;;;5074878;28;20198;-69
2022/08/08 04:42:36;;;;;;;4.73;4.33;;;;;19.10;97199.00;;;;5081864;28;20195;-69
2022/08/08 04:45:26;;;;;;;4.37;3.97;;;;;18.80;97205.00;;;;5088792;28;20199;-68
2022/08/08 04:48:17;;;;;;;5.80;3.97;;;;;19.00;97209.00;;;;5090680;28;20219;-68
2022/08/08 04:51:06;;;;;;;8.27;4.07;;;;;19.30;97206.00;;;;5081267;28;20204;-68
2022/08/08 04:53:55;;;;;;;8.53;4.33;;;;;19.40;97206.00;;;;5070295;28;20763;-68
2022/08/08 04:56:44;;;;;;;5.07;3.60;;;;;19.40;97211.00;;;;5079034;28;20227;-69
2022/08/08 04:59:33;;;;;;;4.00;3.70;;;;;19.50;97218.00;;;;5079116;28;20208;-68
2022/08/08 05:02:22;;;;;;;6.20;3.53;;;;;19.50;97222.00;;;;5069370;28;20206;-69
2022/08/08 05:05:12;;;;;;;10.30;3.67;;;;;19.60;97229.00;;;;5069895;28;20207;-69
2022/08/08 05:08:04;;;;;;;6.43;3.50;;;;;19.60;97227.00;;;;5083449;28;20212;-69
2022/08/08 05:10:53;;;;;;;6.33;3.90;;;;;19.30;97230.00;;;;5081416;28;20242;-69
2022/08/08 05:13:42;;;;;;;7.53;4.13;;;;;19.30;97233.00;;;;5076639;28;20218;-70
2022/08/08 05:16:32;;;;;;;6.03;3.67;;;;;19.60;97230.00;;;;5069172;28;20196;-70
2022/08/08 05:19:21;;;;;;;5.67;3.37;;;;;19.50;97234.00;;;;5079153;28;20224;-70
2022/08/08 05:22:11;;;;;;;4.30;3.70;;;;;19.40;97239.00;;;;5074533;28;20207;-70
2022/08/08 05:25:00;;;;;;;7.43;3.53;;;;;19.40;97241.00;;;;5068916;28;20718;-71
2022/08/08 05:27:49;;;;;;;6.03;4.23;;;;;19.30;97254.00;;;;5081025;28;20686;-71
2022/08/08 05:30:38;;;;;;;4.17;3.80;;;;;19.40;97249.00;;;;5075713;28;20218;-70
2022/08/08 05:33:27;;;;;;;5.20;4.23;;;;;19.30;97257.00;;;;5077045;28;20222;-70
2022/08/08 05:36:22;;;;;;;10.83;4.20;;;;;19.20;97252.00;;;;5077977;28;20200;-70
2022/08/08 05:39:12;;;;;;;7.30;4.63;;;;;19.30;97255.00;;;;5086376;28;20227;-70
2022/08/08 05:42:01;;;;;;;10.97;3.70;;;;;19.70;97252.00;;;;5081668;28;20200;-70
2022/08/08 05:44:51;;;;;;;4.93;4.20;;;;;20.10;97246.00;;;;5073530;28;20207;-70
2022/08/08 05:47:41;;;;;;;3.80;3.50;;;;;19.80;97246.00;;;;5079873;28;20216;-70
2022/08/08 05:50:31;;;;;;;5.20;3.83;;;;;19.90;97257.00;;;;5080381;28;20206;-70
2022/08/08 05:53:24;;;;;;;4.20;3.90;;;;;19.90;97261.00;;;;5081247;28;20655;-70
2022/08/08 05:56:15;;;;;;;5.57;3.93;;;;;19.90;97266.00;;;;5079620;28;20594;-69
2022/08/08 05:59:06;;;;;;;4.90;3.70;;;;;19.80;97267.00;;;;5083067;28;20238;-70
2022/08/08 06:01:57;;;;;;;4.60;3.13;;;;;19.80;97267.00;;;;5076809;28;20208;-70
2022/08/08 06:04:49;;;;;;;3.90;3.50;;;;;20.10;97265.00;;;;5073644;28;20211;-70
2022/08/08 06:07:40;;;;;;;3.53;3.23;;;;;20.40;97263.00;;;;5077677;28;20623;-70
2022/08/08 06:10:31;;;;;;;3.23;2.93;;;;;20.60;97266.00;;;;5069387;28;20200;-70
2022/08/08 06:13:22;;;;;;;3.93;2.60;;;;;20.70;97267.00;;;;5083676;28;20678;-70
2022/08/08 06:16:12;;;;;;;3.70;2.73;;;;;20.90;97264.00;;;;5081759;28;20603;-70
2022/08/08 06:19:01;;;;;;;2.73;2.53;;;;;20.90;97256.00;;;;5075842;28;20243;-70
2022/08/08 06:21:51;;;;;;;3.40;2.20;;;;;21.20;97265.00;;;;5087249;28;20191;-70
2022/08/08 06:24:40;;;;;;;2.93;2.30;;;;;21.10;97267.00;;;;5087540;28;20207;-69
2022/08/08 06:27:39;;;;;;;2.30;2.10;;;;;21.30;97281.00;;;;5087823;28;20218;-69
2022/08/08 06:30:31;;;;;;;3.07;2.50;;;;;21.40;97278.00;;;;5067122;28;20203;-69
2022/08/08 06:33:21;;;;;;;4.50;2.43;;;;;21.30;97273.00;;;;5067861;28;20203;-69
2022/08/08 06:36:12;;;;;;;2.13;1.90;;;;;21.40;97271.00;;;;5074273;28;20246;-69
2022/08/08 06:39:03;;;;;;;2.50;2.30;;;;;21.40;97276.00;;;;5082462;28;20227;-70
2022/08/08 06:41:55;;;;;;;2.77;2.50;;;;;21.40;97276.00;;;;5078246;28;20574;-69
2022/08/08 06:44:49;;;;;;;1.90;1.80;;;;;21.30;97286.00;;;;5077300;28;20198;-69
2022/08/08 06:47:40;;;;;;;2.67;2.27;;;;;21.40;97286.00;;;;5071325;28;20223;-71
2022/08/08 06:50:31;;;;;;;2.27;2.10;;;;;21.50;97288.00;;;;5080776;28;20245;-71
2022/08/08 06:53:21;;;;;;;2.30;1.67;;;;;21.40;97282.00;;;;5069868;28;20218;-70
2022/08/08 06:56:10;;;;;;;2.30;2.10;;;;;21.30;97294.00;;;;5078699;28;20195;-70
2022/08/08 06:58:59;;;;;;;2.30;1.93;;;;;21.50;97285.00;;;;5070901;28;20232;-69
2022/08/08 07:01:59;;;;;;;3.83;2.50;;;;;21.30;97291.00;;;;5073705;28;20195;-70
2022/08/08 07:04:55;;;;;;;2.00;1.90;;;;;21.20;97291.00;;;;5071691;28;20668;-70
2022/08/08 07:07:59;;;;;;;1.63;1.50;;;;;21.50;97290.00;;;;5080023;28;20313;-68
2022/08/08 07:10:50;;;;;;;1.70;1.60;;;;;21.70;97282.00;;;;5083038;28;20697;-69
2022/08/08 07:13:40;;;;;;;2.00;1.90;;;;;21.30;97286.00;;;;5068579;28;20207;-69
2022/08/08 07:16:39;;;;;;;3.87;2.33;;;;;21.50;97288.00;;;;5079486;28;20198;-68
2022/08/08 07:19:35;;;;;;;2.80;2.03;;;;;21.70;97299.00;;;;5071424;28;20223;-69
2022/08/08 07:22:34;;;;;;;2.00;1.90;;;;;21.60;97288.00;;;;5078133;28;20207;-69
2022/08/08 07:25:25;;;;;;;2.20;2.10;;;;;21.70;97280.00;;;;5084760;28;20207;-71
2022/08/08 07:28:15;;;;;;;1.87;1.77;;;;;21.80;97288.00;;;;5077393;28;20474;-71
2022/08/08 07:31:05;;;;;;;2.30;2.10;;;;;21.80;97295.00;;;;5067439;28;20639;-71
2022/08/08 07:33:55;;;;;;;1.80;1.70;;;;;21.70;97295.00;;;;5065986;28;20208;-71
2022/08/08 07:36:44;;;;;;;2.37;2.23;;;;;22.00;97288.00;;;;5076763;28;20199;-71
2022/08/08 07:39:36;;;;;;;4.37;2.00;;;;;22.10;97289.00;;;;5084041;28;20800;-71
2022/08/08 07:42:26;;;;;;;2.00;1.90;;;;;22.00;97289.00;;;;5081463;28;20202;-71
2022/08/08 07:45:15;;;;;;;2.90;1.87;;;;;22.30;97297.00;;;;5080039;28;20685;-71
2022/08/08 07:48:04;;;;;;;2.03;1.80;;;;;22.30;97289.00;;;;5091044;28;20227;-70
2022/08/08 07:50:57;;;;;;;3.23;1.90;;;;;22.50;97287.00;;;;5088512;28;20780;-69
2022/08/08 07:53:53;;;;;;;3.50;2.27;;;;;22.70;97300.00;;;;5091563;28;20199;-69
2022/08/08 07:56:49;;;;;;;2.63;2.03;;;;;22.90;97307.00;;;;5087339;28;20204;-70
2022/08/08 07:59:45;;;;;;;1.90;1.70;;;;;23.00;97303.00;;;;5076261;28;20242;-70
2022/08/08 08:02:39;;;;;;;2.33;1.60;;;;;22.70;97295.00;;;;5090179;28;20210;-71
2022/08/08 08:05:29;;;;;;;3.20;2.10;;;;;23.20;97302.00;;;;5083536;28;20192;-70
2022/08/08 08:08:19;;;;;;;2.13;1.60;;;;;23.30;97305.00;;;;5070923;28;20212;-70
2022/08/08 08:11:13;;;;;;;3.37;2.77;;;;;23.00;97305.00;;;;5070228;28;20202;-68
2022/08/08 08:14:07;;;;;;;1.93;1.80;;;;;23.00;97305.00;;;;5080031;28;20208;-69
2022/08/08 08:16:58;;;;;;;2.43;1.50;;;;;22.90;97309.00;;;;5080482;28;20191;-69
2022/08/08 08:19:49;;;;;;;1.87;1.50;;;;;23.10;97311.00;;;;5079031;28;20226;-68
2022/08/08 08:22:38;;;;;;;2.17;1.97;;;;;23.20;97315.00;;;;5081425;28;20678;-68
2022/08/08 08:25:27;;;;;;;2.00;1.60;;;;;23.60;97314.00;;;;5087075;28;20211;-68
2022/08/08 08:28:16;;;;;;;1.90;1.80;;;;;23.60;97308.00;;;;5083899;22;20207;-84
2022/08/08 08:31:07;;;;;;;1.87;1.77;;;;;24.00;97307.00;;;;5092711;28;20677;-85
2022/08/08 08:33:56;;;;;;;2.43;2.10;;;;;24.30;97304.00;;;;5084025;28;20219;-85
2022/08/08 08:36:45;;;;;;;2.73;1.70;;;;;24.10;97305.00;;;;5087568;28;20394;-86
2022/08/08 08:39:34;;;;;;;1.93;1.73;;;;;24.40;97307.00;;;;5093800;28;20216;-85
2022/08/08 08:42:24;;;;;;;1.63;1.53;;;;;24.10;97306.00;;;;5086784;28;20687;-85
2022/08/08 08:45:14;;;;;;;1.60;1.50;;;;;24.50;97308.00;;;;5082765;28;20216;-86
2022/08/08 08:48:05;;;;;;;1.63;1.50;;;;;25.00;97298.00;;;;5094123;28;20289;-85
2022/08/08 08:50:55;;;;;;;2.10;1.70;;;;;25.50;97294.00;;;;5080852;28;20199;-85
2022/08/08 08:53:47;;;;;;;2.50;1.60;;;;;25.70;97300.00;;;;5076932;28;20224;-86
2022/08/08 08:56:36;;;;;;;2.47;1.70;;;;;25.20;97297.00;;;;5081791;28;20203;-85
2022/08/08 08:59:29;;;;;;;3.60;1.67;;;;;25.70;97308.00;;;;5092654;28;20218;-85
2022/08/08 09:02:20;;;;;;;2.30;1.60;;;;;25.50;97305.00;;;;5099716;28;20574;-85
2022/08/08 09:05:13;;;;;;;2.33;1.80;;;;;25.00;97313.00;;;;5087639;28;20228;-85
2022/08/08 09:08:04;;;;;;;1.87;1.60;;;;;25.40;97313.00;;;;5089467;28;20222;-85
2022/08/08 09:10:53;;;;;;;2.00;1.47;;;;;25.30;97316.00;;;;5087070;28;20206;-85
2022/08/08 09:13:42;;;;;;;1.70;1.60;;;;;25.40;97309.00;;;;5096050;28;20223;-84
2022/08/08 09:16:32;;;;;;;2.70;1.40;;;;;25.60;97319.00;;;;5095573;28;20207;-85
2022/08/08 09:19:21;;;;;;;1.70;1.50;;;;;25.60;97321.00;;;;5087915;28;20315;-85
2022/08/08 09:22:23;;;;;;;1.97;1.87;;;;;25.50;97320.00;;;;5093004;28;20201;-85
2022/08/08 09:25:12;;;;;;;1.37;1.23;;;;;24.70;97316.00;;;;5091494;28;20215;-85
2022/08/08 09:28:02;;;;;;;1.73;1.47;;;;;25.40;97316.00;;;;5093315;28;20202;-85
2022/08/08 09:30:52;;;;;;;1.30;1.20;;;;;24.70;97326.00;;;;5093721;28;20191;-85
2022/08/08 21:24:21;;;;;;;2.40;2.20;;;;;17.60;97491.00;;;;5077359;28;20211;-86
2022/08/08 21:27:16;;;;;;;3.73;2.73;;;;;17.70;97488.00;;;;5070544;28;21815;-86
2022/08/08 21:30:07;;;;;;;2.83;2.53;;;;;17.60;97486.00;;;;5080679;28;20227;-86
2022/08/08 21:32:56;;;;;;;2.60;2.40;;;;;17.70;97491.00;;;;5086791;28;20207;-87
2022/08/08 21:35:45;;;;;;;3.47;2.20;;;;;17.50;97491.00;;;;5077139;28;20222;-88
2022/08/08 21:38:34;;;;;;;2.97;2.67;;;;;17.50;97495.00;;;;5086089;28;20215;-87
2022/08/08 21:41:25;;;;;;;2.97;2.67;;;;;17.30;97495.00;;;;5079005;28;20223;-86
2022/08/08 21:44:14;;;;;;;3.30;2.27;;;;;17.10;97495.00;;;;5084537;28;20219;-86
2022/08/08 21:47:05;;;;;;;2.80;2.57;;;;;17.10;97495.00;;;;5079344;28;20203;-85
2022/08/08 21:49:54;;;;;;;4.30;2.37;;;;;17.00;97493.00;;;;5080161;28;20224;-87
2022/08/08 21:52:43;;;;;;;2.60;2.40;;;;;17.00;97497.00;;;;5080971;28;20579;-87
2022/08/08 21:55:32;;;;;;;3.33;2.67;;;;;17.00;97503.00;;;;5078918;28;20693;-85
2022/08/08 21:58:23;;;;;;;3.13;2.83;;;;;17.00;97496.00;;;;5074785;28;20215;-86
2022/08/08 22:01:12;;;;;;;3.13;2.07;;;;;16.80;97499.00;;;;5068003;28;20228;-87
2022/08/08 22:04:01;;;;;;;2.83;2.60;;;;;16.80;97500.00;;;;5080621;28;20215;-87
2022/08/08 22:06:52;;;;;;;2.53;2.30;;;;;17.00;97497.00;;;;5077112;28;20713;-86
2022/08/08 22:09:41;;;;;;;2.63;2.40;;;;;16.60;97491.00;;;;5080507;28;20227;-88
2022/08/08 22:12:30;;;;;;;2.23;2.07;;;;;16.80;97494.00;;;;5083889;28;20204;-86
2022/08/08 22:15:21;;;;;;;3.47;2.50;;;;;16.40;97489.00;;;;5085679;28;20241;-89
2022/08/08 22:18:10;;;;;;;4.75;2.97;;;;;16.40;97493.00;;;;5079205;28;20395;-87
2022/08/08 22:20:59;;;;;;;3.00;2.10;;;;;16.40;97495.00;;;;5071993;28;20246;-88
2022/08/08 22:23:51;;;;;;;5.97;2.80;;;;;16.30;97500.00;;;;5083825;28;20219;-86
2022/08/08 22:26:40;;;;;;;2.43;2.23;;;;;16.50;97498.00;;;;5075707;28;20211;-86
2022/08/08 22:29:30;;;;;;;7.47;2.53;;;;;16.60;97509.00;;;;5082884;28;20227;-86
2022/08/08 22:32:20;;;;;;;3.17;2.27;;;;;16.60;97505.00;;;;5072281;28;20204;-87
2022/08/08 22:35:11;;;;;;;2.60;2.40;;;;;16.90;97522.00;;;;5083097;28;20675;-86
2022/08/08 22:38:00;;;;;;;2.03;1.87;;;;;16.80;97519.00;;;;5081923;28;20203;-86
2022/08/08 22:40:50;;;;;;;2.10;2.00;;;;;16.90;97532.00;;;;5078097;28;20231;-86
2022/08/08 22:43:39;;;;;;;2.40;2.20;;;;;16.70;97525.00;;;;5077391;28;20204;-85
2022/08/08 22:46:28;;;;;;;2.43;2.27;;;;;16.50;97524.00;;;;5074824;28;20192;-87
2022/08/08 22:49:19;;;;;;;2.87;2.40;;;;;16.60;97518.00;;;;5077492;28;20723;-86
2022/08/08 22:52:08;;;;;;;4.77;2.73;;;;;16.80;97525.00;;;;5075443;28;20267;-87
2022/08/08 22:54:57;;;;;;;2.47;2.20;;;;;16.60;97523.00;;;;5073779;28;20208;-86
2022/08/08 22:57:46;;;;;;;2.27;2.07;;;;;16.60;97523.00;;;;5067385;28;20588;-86
2022/08/08 23:00:35;;;;;;;3.43;2.17;;;;;16.50;97526.00;;;;5080344;28;20216;-86
2022/08/08 23:03:24;;;;;;;2.80;2.60;;;;;16.40;97533.00;;;;5077463;28;20208;-85
2022/08/08 23:06:15;;;;;;;2.87;2.57;;;;;16.40;97528.00;;;;5067914;28;20204;-86
2022/08/08 23:09:04;;;;;;;2.80;2.60;;;;;16.40;97535.00;;;;5076501;28;20713;-86
2022/08/08 23:11:53;;;;;;;2.90;2.20;;;;;16.20;97537.00;;;;5100243;22;20235;-86
2022/08/08 23:14:42;;;;;;;3.33;3.10;;;;;16.30;97536.00;;;;5085771;28;20230;-85
2022/08/08 23:17:31;;;;;;;2.70;2.43;;;;;16.30;97536.00;;;;5087734;28;20207;-85
2022/08/08 23:20:20;;;;;;;2.10;2.00;;;;;16.30;97537.00;;;;5089043;28;20223;-85
2022/08/08 23:23:12;;;;;;;4.57;2.80;;;;;16.20;97533.00;;;;5068563;28;20208;-85
2022/08/08 23:26:01;;;;;;;2.80;2.60;;;;;16.10;97526.00;;;;5064237;28;20199;-85
2022/08/08 23:28:50;;;;;;;2.80;2.37;;;;;16.10;97529.00;;;;5068753;28;20204;-85
2022/08/08 23:31:39;;;;;;;4.17;2.43;;;;;16.20;97537.00;;;;5060533;28;20216;-85
2022/08/08 23:34:28;;;;;;;4.60;2.37;;;;;16.40;97533.00;;;;5065163;28;20200;-87
2022/08/08 23:37:17;;;;;;;2.73;2.53;;;;;16.30;97524.00;;;;5068750;28;20200;-87
2022/08/08 23:40:09;;;;;;;3.10;2.90;;;;;16.10;97522.00;;;;5062416;28;20208;-86
2022/08/08 23:42:58;;;;;;;5.13;2.53;;;;;15.80;97515.00;;;;5068075;28;20406;-86
2022/08/08 23:45:47;;;;;;;2.57;2.37;;;;;15.70;97518.00;;;;5068003;28;20595;-86
2022/08/08 23:48:36;;;;;;;2.57;2.37;;;;;15.70;97516.00;;;;5069113;28;20204;-86
2022/08/08 23:51:25;;;;;;;2.90;2.60;;;;;15.90;97515.00;;;;5067908;28;20224;-86
2022/08/08 23:54:14;;;;;;;2.67;2.47;;;;;16.00;97517.00;;;;5065646;28;20204;-86
2022/08/08 23:57:05;;;;;;;3.87;2.70;;;;;15.80;97514.00;;;;5069067;28;20212;-86
2022/08/08 23:59:54;;;;;;;4.50;2.27;;;;;15.90;97511.00;;;;5067646;28;20196;-86
